Flight Track Log - Related Links

Times and Time Zones

All times are in EDT time to prevent confusion due to time zone crossing. See the CTL18 flight status page for this flight to view local times or setup timezone preferences in your user account.

Time Position Orientation Groundspeed Altitude Reporting Facility
EDT Latitude Longitude Course Direction KTS MPH feet Rate Location/Type
Tue 07:50:00 PM 43.3904 -84.0180 160° South  Level Estimated
Tue 07:51:00 PM 43.3637 -83.9994 153° Southeast  Level FlightAware Approximate
Tue 07:52:00 PM 43.3371 -83.9809 153° Southeast  Level FlightAware Approximate
Tue 07:53:00 PM 43.3085 -83.9689 160° South  Level Estimated
Tue 07:54:00 PM 43.2809 -83.9532 157° South  Level FlightAware Approximate
Tue 07:55:00 PM 43.2533 -83.9375 157° South  Level FlightAware Approximate
Tue 07:56:00 PM 43.2246 -83.9258 163° South  Level Estimated
Tue 07:57:00 PM 43.1964 -83.9124 161° South  Level FlightAware Approximate
Tue 07:58:00 PM 43.1682 -83.8990 161° South  Level FlightAware Approximate
Tue 07:58:05 PM 43.0003 -83.8281 160° South 165 190 5,100  Level Cleveland Center
Tue 07:58:36 PM 42.9797 -83.8156 156° South 165 190 5,000 -70 Descending Cleveland Center
Tue 07:59:00 PM 43.1399 -83.8856 161° South  Level FlightAware Approximate
Tue 07:59:31 PM 42.9386 -83.7936 159° South 161 185 5,000  Level Cleveland Center
Tue 08:00:00 PM 43.1113 -83.8741 160° South  Level Estimated
Tue 08:00:31 PM 42.8975 -83.7717 159° South 159 183 5,000  Level Cleveland Center
Tue 08:01:00 PM 43.0832 -83.8599 160° South  Level FlightAware Approximate
Tue 08:01:38 PM 42.8522 -83.7525 163° South 159 183 5,100  Level Cleveland Center
Tue 08:02:00 PM 43.0552 -83.8456 160° South  Level FlightAware Approximate
Tue 08:02:39 PM 42.8108 -83.7389 166° South 158 182 5,100  Level Cleveland Center
Tue 08:03:00 PM 43.0272 -83.8314 160° South  Level FlightAware Approximate
Tue 08:03:34 PM 42.7694 -83.7256 167° South 157 181 5,000  Level Cleveland Center
Tue 08:04:35 PM 42.7261 -83.7092 164° South 160 184 5,000 -141 Level Cleveland Center
Tue 08:05:42 PM 42.6767 -83.6928 166° South 166 191 4,700 -197 Descending Cleveland Center
Tue 08:06:37 PM 42.6375 -83.6794 166° South 169 194 4,600 -197 Descending Cleveland Center
Tue 08:08:00 PM 42.5989 -83.6595 159° South  Level FlightAware Approximate
Tue 08:08:45 PM 42.5383 -83.6436 159° South 174 200 4,100  Level Cleveland Center
Tue 08:09:40 PM 42.4992 -83.6275 163° South 169 194 3,900 -248 Descending Cleveland Center
Tue 08:10:46 PM 42.4475 -83.6081 164° South 170 196 3,600 -283 Descending Cleveland Center
Tue 08:11:47 PM 42.4000 -83.5892 164° South 173 199 3,300 -293 Descending Cleveland Center
Tue 08:12:49 PM 42.3569 -83.5644 157° South 170 196 3,000 -533 Descending Cleveland Center
Tue 08:14:02 PM 42.3014 -83.5339 158° South 177 204 2,100 -689 Descending Cleveland Center
Tue 08:14:51 PM 42.2706 -83.5156 156° South 157 181 1,600 -612 Descending Cleveland Center
Tue 08:16:00 PM 42.2352 -83.5176 160° South  Level FlightAware Approximate

Login

Don't have an account? Register now (free) for customized features, flight alerts, and more!